Time;durP1;ratioP1;P1;durP2;ratioP2;P2;SDS_P1;SDS_P2;PMS_P1;PMS_P2;Temp;Humidity;BMP_temperature;BMP_pressure;BME280_temperature;BME280_humidity;BME280_pressure;Samples;Min_cycle;Max_cycle;Signal;HPM_P1;HPM_P2
2024/01/23 00:00:55;;;;;;;1.85;0.90;;;8.80;96.20;;;;;;5073915;28;20031;-43
2024/01/23 00:03:22;;;;;;;1.23;0.90;;;8.80;96.20;;;;;;5073230;28;20078;-41
2024/01/23 00:05:47;;;;;;;1.35;0.80;;;8.70;96.30;;;;;;5072495;28;20032;-43
2024/01/23 00:08:13;;;;;;;1.90;1.00;;;8.70;96.30;;;;;;5072954;28;20375;-44
2024/01/23 00:10:38;;;;;;;2.25;1.02;;;8.70;96.30;;;;;;5073362;28;20024;-43
2024/01/23 00:13:04;;;;;;;1.08;0.80;;;8.70;96.40;;;;;;5073399;28;20135;-43
2024/01/23 00:15:30;;;;;;;1.83;0.90;;;8.60;96.40;;;;;;5073430;28;20069;-39
2024/01/23 00:17:55;;;;;;;1.73;0.90;;;8.60;96.40;;;;;;5072841;28;20095;-38
2024/01/23 00:20:21;;;;;;;1.77;0.90;;;8.60;96.50;;;;;;5073104;28;20040;-44
2024/01/23 00:22:46;;;;;;;2.75;1.27;;;8.60;96.80;;;;;;5072874;28;20056;-43
2024/01/23 00:25:12;;;;;;;1.63;0.98;;;8.60;96.60;;;;;;5073554;28;20181;-43
2024/01/23 00:27:38;;;;;;;2.45;1.00;;;8.50;96.50;;;;;;5073223;28;20058;-43
2024/01/23 00:30:04;;;;;;;1.80;0.93;;;8.50;96.60;;;;;;5072653;28;20032;-43
2024/01/23 00:32:30;;;;;;;2.72;1.00;;;8.50;96.60;;;;;;5073215;28;20024;-43
2024/01/23 00:34:57;;;;;;;1.88;0.77;;;8.50;96.70;;;;;;5072293;28;20386;-39
2024/01/23 00:37:23;;;;;;;2.13;0.90;;;8.50;96.70;;;;;;5072606;28;20098;-44
2024/01/23 00:39:50;;;;;;;2.45;0.75;;;8.50;96.70;;;;;;5072579;28;20070;-43
2024/01/23 00:42:16;;;;;;;2.03;0.82;;;8.50;96.70;;;;;;5072575;28;20028;-43
2024/01/23 00:47:27;;;;;;;2.38;0.80;;;8.40;96.80;;;;;;5072651;28;20406;-43
2024/01/23 00:49:52;;;;;;;2.35;0.98;;;8.40;96.80;;;;;;5072220;28;20032;-43
2024/01/23 00:52:18;;;;;;;2.17;1.00;;;8.40;96.80;;;;;;5072302;28;20020;-43
2024/01/23 00:54:44;;;;;;;2.95;1.05;;;8.40;96.80;;;;;;5072650;28;20600;-43
2024/01/23 00:57:09;;;;;;;1.70;0.95;;;8.40;96.90;;;;;;5072225;28;20023;-43
2024/01/23 00:59:35;;;;;;;2.53;1.13;;;8.40;96.90;;;;;;5072029;28;20367;-43
2024/01/23 01:02:02;;;;;;;2.28;0.80;;;8.40;96.90;;;;;;5072057;28;20097;-40
2024/01/23 01:04:28;;;;;;;2.25;1.10;;;8.40;96.90;;;;;;5072031;28;20461;-43
2024/01/23 01:06:53;;;;;;;3.55;0.95;;;8.40;97.00;;;;;;5072010;28;20131;-44
2024/01/23 01:09:19;;;;;;;1.83;0.80;;;8.30;97.00;;;;;;5071857;28;20035;-43
2024/01/23 01:11:45;;;;;;;2.53;1.05;;;8.30;97.00;;;;;;5071915;28;20040;-43
2024/01/23 01:14:10;;;;;;;1.90;0.88;;;8.30;97.00;;;;;;5071801;28;20074;-39
2024/01/23 01:16:36;;;;;;;1.52;0.70;;;8.30;97.00;;;;;;5071646;28;20029;-44
2024/01/23 01:19:02;;;;;;;1.30;0.80;;;8.30;97.10;;;;;;5071547;28;20055;-43
2024/01/23 01:21:27;;;;;;;2.72;0.90;;;8.30;97.10;;;;;;5073313;28;20741;-44
2024/01/23 01:23:53;;;;;;;1.55;0.90;;;8.30;97.10;;;;;;5072725;28;20029;-42
2024/01/23 01:26:19;;;;;;;2.08;0.80;;;8.30;97.20;;;;;;5072185;28;20107;-40
2024/01/23 01:28:44;;;;;;;1.63;0.90;;;8.30;97.20;;;;;;5071505;28;20108;-42
2024/01/23 01:31:10;;;;;;;2.38;0.95;;;8.30;97.20;;;;;;5071600;28;20048;-44
2024/01/23 01:33:35;;;;;;;1.15;0.65;;;8.30;97.20;;;;;;5071529;28;20020;-43
2024/01/23 01:36:01;;;;;;;1.88;0.82;;;8.30;97.20;;;;;;5072417;28;20024;-40
2024/01/23 01:38:26;;;;;;;2.65;0.90;;;8.30;97.20;;;;;;5071383;28;20048;-43
2024/01/23 01:40:54;;;;;;;3.10;0.88;;;8.30;97.20;;;;;;5073198;28;20028;-44
2024/01/23 01:43:27;;;;;;;1.42;0.70;;;8.20;97.20;;;;;;5072034;28;20032;-44
2024/01/23 01:46:11;;;;;;;2.42;0.90;;;8.20;97.30;;;;;;5071707;28;20077;-43
2024/01/23 01:48:40;;;;;;;4.00;1.08;;;8.20;97.30;;;;;;5071411;28;20074;-43
2024/01/23 01:51:06;;;;;;;2.47;0.95;;;8.20;97.30;;;;;;5071428;28;20032;-43
2024/01/23 01:53:33;;;;;;;1.58;0.73;;;8.20;97.30;;;;;;5071351;28;20021;-43
2024/01/23 01:55:59;;;;;;;2.40;1.02;;;8.20;97.30;;;;;;5071158;28;20107;-43
2024/01/23 01:58:27;;;;;;;2.90;0.88;;;8.20;97.40;;;;;;5071622;28;20100;-43
2024/01/23 02:00:57;;;;;;;1.55;0.90;;;8.20;97.40;;;;;;5071318;28;20501;-43
2024/01/23 02:03:23;;;;;;;2.20;0.70;;;8.20;97.40;;;;;;5071218;28;20104;-40
2024/01/23 02:05:50;;;;;;;2.85;0.95;;;8.20;97.40;;;;;;5071214;28;20144;-43
2024/01/23 02:08:16;;;;;;;1.88;0.70;;;8.20;97.40;;;;;;5071242;28;20059;-43
2024/01/23 02:10:43;;;;;;;2.25;0.90;;;8.20;97.40;;;;;;5071069;28;20027;-43
2024/01/23 02:13:08;;;;;;;2.60;0.93;;;8.20;97.40;;;;;;5071087;28;20613;-43
2024/01/23 02:15:34;;;;;;;2.25;0.90;;;8.20;97.50;;;;;;5071135;28;20096;-43
2024/01/23 02:18:00;;;;;;;1.75;0.60;;;8.20;97.50;;;;;;5071090;28;20028;-42
2024/01/23 02:20:26;;;;;;;2.72;0.75;;;8.20;97.50;;;;;;5071504;28;20047;-43
2024/01/23 02:22:53;;;;;;;4.25;0.95;;;8.20;97.50;;;;;;5070977;28;20471;-42
2024/01/23 02:25:18;;;;;;;2.25;0.90;;;8.20;97.50;;;;;;5070852;28;20052;-43
2024/01/23 02:27:44;;;;;;;2.63;0.98;;;8.20;97.50;;;;;;5071282;28;20382;-44
2024/01/23 02:30:10;;;;;;;2.78;1.00;;;8.20;97.50;;;;;;5073067;28;20052;-43
2024/01/23 02:32:36;;;;;;;1.77;0.82;;;8.20;97.50;;;;;;5074817;28;20048;-43
2024/01/23 02:35:02;;;;;;;3.17;0.88;;;8.20;97.50;;;;;;5074915;28;20423;-42
2024/01/23 02:37:27;;;;;;;3.67;1.05;;;8.20;97.60;;;;;;5075627;28;20556;-42
2024/01/23 02:39:53;;;;;;;2.20;0.82;;;8.20;97.60;;;;;;5075522;28;20036;-43
2024/01/23 02:42:19;;;;;;;1.10;0.70;;;8.10;97.60;;;;;;5075074;28;20386;-42
2024/01/23 02:44:47;;;;;;;3.42;1.10;;;8.10;97.60;;;;;;5074701;28;20104;-43
2024/01/23 02:47:13;;;;;;;2.65;1.10;;;8.10;97.60;;;;;;5074333;28;20115;-44
2024/01/23 02:49:39;;;;;;;2.63;1.08;;;8.10;97.60;;;;;;5075217;28;20386;-43
2024/01/23 02:52:05;;;;;;;2.25;0.95;;;8.10;97.60;;;;;;5074702;28;20019;-43
2024/01/23 02:54:33;;;;;;;1.77;0.80;;;8.10;97.60;;;;;;5074496;28;20020;-43
2024/01/23 02:56:59;;;;;;;2.28;0.95;;;8.10;97.60;;;;;;5074508;28;20032;-38
2024/01/23 02:59:25;;;;;;;3.08;0.98;;;8.10;97.60;;;;;;5074220;28;20028;-43
2024/01/23 03:01:51;;;;;;;2.90;1.10;;;8.10;97.60;;;;;;5074368;28;20386;-43
2024/01/23 03:04:16;;;;;;;3.08;0.80;;;8.10;97.60;;;;;;5074346;28;20530;-43
2024/01/23 03:06:42;;;;;;;4.22;1.00;;;8.10;97.70;;;;;;5074321;28;20466;-43
2024/01/23 03:09:10;;;;;;;3.47;0.80;;;8.10;97.70;;;;;;5074113;28;20039;-41
2024/01/23 03:11:36;;;;;;;4.25;1.25;;;8.10;97.70;;;;;;5074330;28;20017;-43
2024/01/23 03:14:03;;;;;;;4.45;1.00;;;8.10;97.70;;;;;;5074190;28;20095;-43
2024/01/23 03:16:29;;;;;;;3.15;1.00;;;8.10;97.70;;;;;;5073963;28;20020;-41
2024/01/23 03:18:54;;;;;;;4.65;1.33;;;8.10;97.70;;;;;;5074119;28;20077;-43
2024/01/23 03:21:20;;;;;;;2.80;1.02;;;8.10;97.70;;;;;;5075214;28;20486;-43
2024/01/23 03:23:46;;;;;;;3.63;1.02;;;8.10;97.70;;;;;;5073908;28;20025;-41
2024/01/23 03:26:11;;;;;;;2.67;0.90;;;8.10;97.80;;;;;;5073959;28;20029;-43
2024/01/23 03:28:37;;;;;;;4.43;1.15;;;8.10;97.70;;;;;;5073828;28;20040;-38
2024/01/23 03:31:03;;;;;;;3.70;1.20;;;8.10;97.80;;;;;;5074327;28;20025;-43
2024/01/23 03:33:29;;;;;;;1.88;1.00;;;8.10;97.80;;;;;;5073790;28;20387;-44
2024/01/23 03:35:55;;;;;;;4.03;1.00;;;8.10;97.80;;;;;;5073856;28;20020;-42
2024/01/23 03:38:20;;;;;;;2.17;0.90;;;8.10;97.80;;;;;;5073654;28;20036;-43
2024/01/23 03:40:46;;;;;;;3.72;1.20;;;8.10;98.10;;;;;;5073890;28;20462;-42
2024/01/23 03:43:12;;;;;;;2.38;0.93;;;8.10;97.80;;;;;;5073691;28;20025;-43
2024/01/23 03:45:37;;;;;;;3.75;1.02;;;8.10;97.80;;;;;;5073495;28;20100;-39
2024/01/23 03:48:04;;;;;;;3.75;1.00;;;8.10;97.80;;;;;;5074371;28;20027;-43
2024/01/23 03:50:30;;;;;;;3.90;1.25;;;8.10;97.80;;;;;;5073545;28;20453;-43
2024/01/23 03:52:56;;;;;;;3.60;1.00;;;8.10;97.80;;;;;;5073823;28;20112;-44
2024/01/23 03:55:22;;;;;;;4.63;1.10;;;8.10;97.80;;;;;;5074341;28;20479;-43
2024/01/23 03:57:48;;;;;;;3.90;1.08;;;8.10;97.80;;;;;;5073919;28;20116;-43
2024/01/23 04:00:14;;;;;;;2.72;1.20;;;8.10;97.90;;;;;;5073324;28;20472;-43
2024/01/23 04:02:41;;;;;;;2.30;0.88;;;8.10;97.90;;;;;;5073429;28;20287;-43
2024/01/23 04:05:07;;;;;;;3.47;0.80;;;8.10;97.90;;;;;;5073409;28;20024;-42
2024/01/23 04:07:34;;;;;;;2.90;0.90;;;8.10;97.90;;;;;;5073755;28;20032;-43
2024/01/23 04:10:06;;;;;;;2.72;0.95;;;8.10;97.90;;;;;;5073664;28;20069;-39
2024/01/23 04:12:32;;;;;;;3.53;1.17;;;8.10;97.90;;;;;;5072663;28;20028;-43
2024/01/23 04:14:58;;;;;;;2.88;0.80;;;8.10;97.90;;;;;;5073193;28;20029;-42
2024/01/23 04:17:25;;;;;;;2.78;0.77;;;8.10;97.90;;;;;;5073072;28;20112;-43
2024/01/23 04:19:50;;;;;;;3.17;1.02;;;8.10;97.90;;;;;;5073157;28;20037;-43
2024/01/23 04:22:19;;;;;;;3.08;1.00;;;8.00;97.90;;;;;;5073237;28;20021;-43
2024/01/23 04:24:45;;;;;;;3.28;1.13;;;8.00;97.90;;;;;;5073335;28;20113;-44
2024/01/23 04:27:12;;;;;;;3.45;1.00;;;8.00;97.90;;;;;;5072756;28;20482;-43
2024/01/23 04:29:38;;;;;;;3.60;1.02;;;8.00;97.90;;;;;;5072737;28;20137;-39
2024/01/23 04:32:04;;;;;;;3.72;0.98;;;8.00;97.90;;;;;;5073086;28;20038;-43
2024/01/23 04:34:29;;;;;;;4.43;1.27;;;8.10;97.90;;;;;;5072514;28;20048;-38
2024/01/23 04:36:55;;;;;;;3.50;0.98;;;8.00;97.90;;;;;;5072604;28;20052;-42
2024/01/23 04:39:20;;;;;;;3.40;0.98;;;8.00;97.90;;;;;;5072427;28;20032;-43
2024/01/23 04:41:46;;;;;;;5.30;1.00;;;8.10;98.00;;;;;;5073345;28;20024;-43
2024/01/23 04:44:12;;;;;;;3.10;1.05;;;8.10;98.30;;;;;;5071142;28;20055;-43
2024/01/23 04:46:37;;;;;;;3.08;1.08;;;8.00;98.00;;;;;;5072392;28;20059;-43
2024/01/23 04:49:03;;;;;;;2.80;0.95;;;8.00;98.00;;;;;;5072696;28;20032;-39
2024/01/23 04:51:29;;;;;;;4.93;1.10;;;8.00;98.00;;;;;;5072120;28;20029;-44
2024/01/23 04:53:56;;;;;;;1.75;1.00;;;8.00;98.00;;;;;;5071772;28;20023;-43
2024/01/23 04:56:22;;;;;;;4.53;0.90;;;8.00;98.00;;;;;;5072734;28;20099;-43
2024/01/23 04:58:48;;;;;;;3.33;0.90;;;8.10;98.00;;;;;;5072717;28;20146;-44
2024/01/23 05:01:14;;;;;;;3.10;0.90;;;8.00;98.00;;;;;;5072254;28;20101;-44
2024/01/23 05:03:40;;;;;;;3.95;1.10;;;8.10;98.00;;;;;;5072290;28;20034;-43
2024/01/23 05:06:05;;;;;;;4.88;1.08;;;8.00;98.00;;;;;;5072045;28;20028;-42
2024/01/23 05:08:31;;;;;;;3.60;1.00;;;8.00;98.00;;;;;;5071723;28;20032;-44
2024/01/23 05:10:57;;;;;;;3.20;1.00;;;8.00;98.10;;;;;;5070939;28;20383;-43
2024/01/23 05:13:23;;;;;;;4.75;1.00;;;8.00;98.10;;;;;;5071929;28;20510;-39
2024/01/23 05:15:48;;;;;;;2.33;1.00;;;8.00;98.10;;;;;;5071922;28;20021;-43
2024/01/23 05:18:14;;;;;;;3.05;1.02;;;8.00;98.10;;;;;;5072390;28;20027;-40
2024/01/23 05:20:40;;;;;;;3.95;1.08;;;8.00;98.10;;;;;;5071996;28;20024;-42
2024/01/23 05:23:06;;;;;;;2.75;1.13;;;8.00;98.50;;;;;;5071654;28;20428;-43
2024/01/23 05:25:32;;;;;;;3.25;0.80;;;8.00;98.20;;;;;;5072102;28;20544;-39
2024/01/23 05:27:58;;;;;;;1.52;0.90;;;8.10;98.20;;;;;;5071731;28;20074;-41
2024/01/23 05:30:24;;;;;;;5.72;1.00;;;8.00;98.20;;;;;;5071611;28;20482;-43
2024/01/23 05:32:50;;;;;;;2.47;0.90;;;8.00;98.20;;;;;;5071440;28;20059;-43
2024/01/23 05:35:16;;;;;;;2.85;0.88;;;8.00;98.20;;;;;;5072560;28;20012;-43
2024/01/23 05:37:42;;;;;;;1.80;0.80;;;8.00;98.20;;;;;;5072481;28;20272;-39
2024/01/23 05:40:12;;;;;;;2.97;0.90;;;8.00;98.20;;;;;;5071771;28;20029;-43
2024/01/23 05:42:38;;;;;;;2.67;0.95;;;8.00;98.20;;;;;;5071847;28;20028;-43
2024/01/23 05:45:04;;;;;;;1.65;0.65;;;8.00;98.20;;;;;;5072487;28;20029;-43
2024/01/23 05:47:30;;;;;;;3.17;0.88;;;8.00;98.20;;;;;;5071434;28;20032;-43
2024/01/23 05:49:55;;;;;;;1.85;0.77;;;8.00;98.20;;;;;;5072291;28;20028;-39
2024/01/23 05:52:21;;;;;;;3.38;0.88;;;8.00;98.20;;;;;;5071449;28;20066;-43
2024/01/23 05:54:47;;;;;;;2.50;0.73;;;8.00;98.20;;;;;;5071282;28;20024;-43
2024/01/23 05:57:13;;;;;;;2.10;0.73;;;8.00;98.20;;;;;;5071415;28;20028;-44
2024/01/23 05:59:39;;;;;;;2.45;0.85;;;8.00;98.20;;;;;;5071144;28;20097;-43
2024/01/23 06:02:04;;;;;;;2.40;0.85;;;8.00;98.20;;;;;;5071692;28;20538;-43
2024/01/23 06:04:30;;;;;;;3.00;0.82;;;8.00;98.20;;;;;;5071163;28;20036;-43
2024/01/23 06:06:56;;;;;;;1.38;0.68;;;8.00;98.20;;;;;;5071267;28;20032;-43
2024/01/23 06:09:21;;;;;;;2.20;0.80;;;8.00;98.20;;;;;;5071103;28;20032;-43
2024/01/23 06:11:47;;;;;;;2.17;0.80;;;8.00;98.20;;;;;;5071193;28;20021;-43
2024/01/23 06:14:13;;;;;;;2.42;1.08;;;8.00;98.20;;;;;;5070151;28;20041;-43
2024/01/23 06:16:39;;;;;;;3.45;1.02;;;8.00;99.20;;;;;;5071038;28;20024;-43
2024/01/23 06:19:08;;;;;;;1.48;0.70;;;8.20;99.60;;;;;;5071657;28;20063;-43
2024/01/23 06:21:34;;;;;;;2.05;0.80;;;8.70;99.40;;;;;;5071297;28;20483;-40
2024/01/23 06:24:00;;;;;;;1.50;0.68;;;9.20;98.80;;;;;;5070891;28;20028;-43
2024/01/23 06:26:26;;;;;;;1.52;0.70;;;9.70;97.30;;;;;;5071429;28;20028;-43
2024/01/23 06:28:51;;;;;;;2.78;0.80;;;10.00;96.30;;;;;;5071158;28;20029;-41
2024/01/23 06:31:18;;;;;;;1.52;0.70;;;10.20;95.70;;;;;;5072405;28;20355;-43
2024/01/23 06:33:44;;;;;;;1.98;0.70;;;10.20;95.40;;;;;;5070949;28;20016;-41
2024/01/23 06:36:10;;;;;;;1.65;0.70;;;10.20;95.20;;;;;;5071530;28;20534;-40
2024/01/23 06:38:35;;;;;;;1.25;0.68;;;10.10;95.20;;;;;;5071144;28;20025;-39
2024/01/23 06:41:01;;;;;;;1.77;0.70;;;10.00;95.20;;;;;;5072360;28;20113;-43
2024/01/23 06:43:26;;;;;;;1.00;0.50;;;9.90;95.30;;;;;;5071051;28;20052;-44
2024/01/23 06:45:52;;;;;;;1.85;0.60;;;9.80;96.10;;;;;;5070835;28;20040;-43
2024/01/23 06:48:18;;;;;;;1.50;0.73;;;10.00;96.40;;;;;;5070792;28;20028;-43
2024/01/23 06:50:44;;;;;;;1.15;0.65;;;10.40;95.80;;;;;;5070849;28;20479;-41
2024/01/23 06:53:10;;;;;;;1.70;0.70;;;10.60;95.00;;;;;;5070743;28;20101;-39
2024/01/23 06:55:36;;;;;;;1.90;0.80;;;10.60;94.60;;;;;;5070190;28;20394;-40
2024/01/23 06:58:01;;;;;;;1.38;0.57;;;10.60;94.90;;;;;;5071165;28;20025;-43
2024/01/23 07:00:27;;;;;;;0.47;0.40;;;10.50;94.50;;;;;;5071080;28;20445;-44
2024/01/23 07:02:53;;;;;;;2.05;0.70;;;10.40;94.60;;;;;;5071942;28;20521;-43
2024/01/23 07:05:18;;;;;;;2.05;0.60;;;10.30;94.70;;;;;;5070903;28;20090;-43
2024/01/23 07:07:44;;;;;;;1.55;0.55;;;10.20;95.10;;;;;;5070632;28;20445;-43
2024/01/23 07:10:10;;;;;;;1.15;0.57;;;10.20;95.80;;;;;;5070560;28;20029;-43
2024/01/23 07:12:35;;;;;;;1.52;0.80;;;10.50;95.70;;;;;;5071458;28;20478;-40
2024/01/23 07:15:01;;;;;;;1.25;0.65;;;10.80;94.80;;;;;;5071802;28;20503;-43
2024/01/23 07:17:27;;;;;;;2.22;0.90;;;10.90;94.30;;;;;;5074669;28;20024;-39
2024/01/23 07:19:52;;;;;;;2.92;0.70;;;10.90;94.10;;;;;;5074072;28;20116;-44
2024/01/23 07:22:18;;;;;;;2.58;0.80;;;10.80;94.00;;;;;;5074120;28;20512;-43
2024/01/23 07:24:43;;;;;;;1.23;0.70;;;10.70;94.00;;;;;;5074014;28;20032;-43
2024/01/23 07:27:09;;;;;;;1.08;0.68;;;10.60;94.10;;;;;;5073940;28;20183;-43
2024/01/23 07:29:35;;;;;;;1.65;0.65;;;10.60;94.30;;;;;;5074031;28;20033;-43
2024/01/23 07:32:01;;;;;;;0.75;0.50;;;10.50;94.90;;;;;;5074784;28;20031;-44
2024/01/23 07:34:26;;;;;;;1.67;0.68;;;10.70;95.30;;;;;;5074026;28;20489;-39
2024/01/23 07:36:52;;;;;;;1.25;0.60;;;11.00;94.80;;;;;;5074612;28;20036;-43
2024/01/23 07:39:17;;;;;;;0.93;0.52;;;11.30;94.00;;;;;;5073820;28;20016;-38
2024/01/23 07:41:43;;;;;;;0.65;0.38;;;11.30;93.60;;;;;;5074671;28;20036;-43
2024/01/23 07:44:09;;;;;;;0.85;0.60;;;11.30;93.50;;;;;;5074707;28;20110;-43
2024/01/23 07:46:34;;;;;;;1.63;0.60;;;11.20;93.50;;;;;;5073798;28;20494;-39
2024/01/23 07:49:01;;;;;;;1.35;0.60;;;11.20;93.60;;;;;;5072112;28;20037;-39
2024/01/23 07:51:28;;;;;;;1.20;0.52;;;11.10;93.70;;;;;;5073641;28;20502;-43
2024/01/23 07:53:54;;;;;;;1.00;0.60;;;11.10;93.70;;;;;;5073543;28;20043;-41
2024/01/23 07:56:19;;;;;;;2.63;0.80;;;11.00;93.80;;;;;;5073371;28;20099;-44
2024/01/23 07:58:45;;;;;;;1.75;0.80;;;11.00;93.90;;;;;;5073347;28;20035;-44
2024/01/23 08:01:11;;;;;;;1.77;0.82;;;11.00;94.00;;;;;;5074031;28;20024;-43
2024/01/23 08:03:36;;;;;;;2.75;0.90;;;10.90;94.10;;;;;;5073660;28;20099;-43
2024/01/23 08:06:02;;;;;;;1.55;0.80;;;10.90;94.20;;;;;;5073675;28;20021;-43
2024/01/23 08:08:28;;;;;;;1.55;1.27;;;10.90;94.20;;;;;;5073166;28;20025;-42
2024/01/23 08:10:54;;;;;;;2.15;1.40;;;10.90;94.30;;;;;;5073690;28;20057;-43
2024/01/23 08:13:20;;;;;;;3.15;1.88;;;10.80;94.30;;;;;;5074576;28;20095;-44
2024/01/23 08:15:47;;;;;;;4.13;1.98;;;10.90;94.30;;;;;;5073919;28;20546;-43
2024/01/23 08:18:13;;;;;;;2.17;1.52;;;10.90;94.40;;;;;;5072932;28;20036;-43
2024/01/23 08:20:39;;;;;;;2.10;1.48;;;10.80;94.40;;;;;;5071646;28;20410;-43
2024/01/23 08:23:05;;;;;;;2.28;1.25;;;10.80;94.40;;;;;;5072927;28;20023;-43
2024/01/23 08:25:31;;;;;;;1.55;1.25;;;10.80;94.40;;;;;;5072914;28;20165;-45
2024/01/23 08:27:57;;;;;;;2.15;1.25;;;10.80;94.40;;;;;;5072067;28;20035;-44
2024/01/23 08:30:22;;;;;;;1.50;0.90;;;10.80;94.40;;;;;;5072673;28;20103;-42
2024/01/23 08:32:48;;;;;;;1.70;1.10;;;10.90;94.40;;;;;;5070915;28;20021;-43
2024/01/23 08:35:15;;;;;;;1.98;1.20;;;10.90;94.40;;;;;;5072526;28;20027;-43
2024/01/23 08:37:41;;;;;;;1.58;1.10;;;10.90;94.40;;;;;;5072779;28;20112;-43
2024/01/23 08:40:07;;;;;;;1.48;1.15;;;10.90;94.40;;;;;;5071557;28;20115;-43
2024/01/23 08:42:33;;;;;;;2.85;1.50;;;10.90;94.30;;;;;;5051588;28;20048;-43
2024/01/23 08:44:58;;;;;;;2.08;1.20;;;11.00;94.30;;;;;;5083179;28;20028;-43
2024/01/23 08:47:24;;;;;;;1.60;1.02;;;11.00;94.30;;;;;;5073153;28;20115;-41
2024/01/23 08:49:49;;;;;;;2.40;1.13;;;11.00;94.20;;;;;;5072584;28;20028;-43
2024/01/23 08:52:16;;;;;;;2.05;1.20;;;11.10;94.20;;;;;;5072585;28;20029;-44
2024/01/23 08:54:41;;;;;;;1.65;0.93;;;11.10;94.10;;;;;;5072279;28;20092;-40
2024/01/23 08:57:09;;;;;;;2.42;1.10;;;11.20;94.10;;;;;;5072657;28;20084;-42
2024/01/23 08:59:40;;;;;;;1.88;0.90;;;11.20;94.00;;;;;;5077849;28;20119;-43
2024/01/23 09:02:06;;;;;;;1.48;1.20;;;11.30;94.00;;;;;;5089857;28;20028;-43
2024/01/23 09:04:31;;;;;;;2.53;1.00;;;11.30;93.90;;;;;;5091426;28;20028;-44
2024/01/23 09:06:57;;;;;;;3.88;1.05;;;11.40;94.00;;;;;;5092299;28;20069;-44
2024/01/23 09:09:23;;;;;;;3.67;0.88;;;11.40;94.20;;;;;;5092244;28;20042;-42
2024/01/23 09:11:49;;;;;;;4.07;0.60;;;11.50;94.30;;;;;;5092766;28;20031;-44
2024/01/23 09:14:15;;;;;;;3.65;1.10;;;11.60;94.40;;;;;;5092850;28;20020;-44
2024/01/23 09:16:41;;;;;;;2.30;0.63;;;11.60;94.30;;;;;;5092191;28;20496;-44
2024/01/23 09:19:06;;;;;;;1.40;0.70;;;11.70;94.30;;;;;;5092113;28;20024;-43
2024/01/23 09:21:32;;;;;;;2.53;0.85;;;11.70;94.20;;;;;;5092178;28;20039;-42
2024/01/23 09:23:59;;;;;;;2.47;1.00;;;11.80;94.10;;;;;;5091976;28;20077;-43
2024/01/23 09:26:24;;;;;;;1.38;0.60;;;11.80;94.00;;;;;;5092401;28;20035;-44
2024/01/23 09:28:50;;;;;;;2.50;0.60;;;11.90;93.90;;;;;;5091941;28;20099;-44
2024/01/23 09:31:16;;;;;;;2.88;0.90;;;12.00;93.80;;;;;;5092084;28;20051;-44
2024/01/23 09:33:41;;;;;;;1.80;0.77;;;12.00;93.80;;;;;;5092038;28;20401;-44
2024/01/23 09:36:09;;;;;;;2.53;0.90;;;12.00;93.70;;;;;;5091835;28;20099;-43
2024/01/23 09:38:34;;;;;;;2.40;1.00;;;12.10;93.60;;;;;;5092119;28;20024;-44
2024/01/23 09:41:08;;;;;;;1.58;0.60;;;12.20;93.60;;;;;;5092043;28;20050;-44
2024/01/23 09:43:35;;;;;;;1.98;0.90;;;12.20;93.50;;;;;;5091681;28;20103;-44
2024/01/23 09:46:04;;;;;;;1.90;0.90;;;12.20;93.40;;;;;;5091765;28;20020;-44
2024/01/23 09:48:30;;;;;;;1.92;0.75;;;12.30;93.30;;;;;;5091638;28;20448;-43
2024/01/23 09:50:58;;;;;;;1.90;0.70;;;12.30;93.20;;;;;;5093106;28;20262;-43
2024/01/23 09:53:25;;;;;;;2.75;0.90;;;12.40;93.20;;;;;;5091836;28;20074;-44
2024/01/23 09:55:51;;;;;;;2.90;0.93;;;12.40;93.10;;;;;;5092250;28;20028;-42
2024/01/23 09:58:16;;;;;;;1.85;0.70;;;12.50;93.10;;;;;;5091774;28;20035;-43
2024/01/23 10:00:42;;;;;;;1.90;0.80;;;12.50;93.00;;;;;;5091377;28;20595;-43
2024/01/23 10:03:10;;;;;;;2.47;1.30;;;12.50;92.90;;;;;;5091645;28;20478;-44
2024/01/23 10:05:36;;;;;;;4.75;1.40;;;12.50;93.00;;;;;;5092055;28;20177;-44
2024/01/23 10:08:01;;;;;;;5.88;1.30;;;12.50;93.10;;;;;;5091409;28;20514;-43
2024/01/23 10:10:29;;;;;;;3.65;1.27;;;12.60;93.30;;;;;;5091304;28;20048;-44
2024/01/23 10:12:55;;;;;;;4.10;1.30;;;12.70;93.30;;;;;;5091163;28;20397;-44
2024/01/23 10:15:21;;;;;;;5.10;1.23;;;12.80;93.30;;;;;;5091378;28;20030;-45
2024/01/23 10:17:47;;;;;;;1.92;0.90;;;12.80;93.20;;;;;;5091573;28;20032;-44
2024/01/23 10:20:13;;;;;;;6.57;1.45;;;12.80;93.20;;;;;;5092061;28;20105;-44
2024/01/23 10:22:39;;;;;;;4.00;1.50;;;12.90;93.20;;;;;;5092097;28;20028;-44
2024/01/23 10:25:20;;;;;;;7.15;1.30;;;13.00;93.10;;;;;;5091056;28;20047;-44
2024/01/23 10:27:51;;;;;;;3.08;1.20;;;13.10;93.40;;;;;;5091516;28;20378;-45
2024/01/23 10:30:16;;;;;;;5.03;1.20;;;13.10;93.00;;;;;;5091284;28;20032;-45
2024/01/23 10:32:42;;;;;;;3.92;1.40;;;13.20;92.90;;;;;;5091298;28;20024;-43
2024/01/23 10:35:11;;;;;;;3.83;1.40;;;13.30;92.90;;;;;;5092119;28;20039;-44
2024/01/23 10:37:38;;;;;;;2.47;0.90;;;13.40;92.80;;;;;;5091279;28;20111;-45
2024/01/23 10:40:05;;;;;;;5.50;1.02;;;13.40;92.70;;;;;;5091870;28;20051;-45
2024/01/23 10:42:31;;;;;;;6.68;0.77;;;13.50;92.60;;;;;;5091139;28;20108;-45
2024/01/23 10:44:59;;;;;;;3.45;1.27;;;13.60;92.50;;;;;;5091901;28;20531;-43
2024/01/23 10:47:28;;;;;;;3.25;1.13;;;13.70;92.40;;;;;;5091079;28;20024;-43
2024/01/23 10:49:54;;;;;;;3.05;0.90;;;13.80;92.40;;;;;;5092120;28;20509;-44
2024/01/23 10:52:20;;;;;;;2.78;1.00;;;13.90;92.30;;;;;;5095085;28;20052;-45
2024/01/23 10:54:48;;;;;;;2.80;0.90;;;14.00;92.20;;;;;;5094895;28;20035;-44
2024/01/23 10:57:24;;;;;;;2.67;1.27;;;14.10;92.10;;;;;;5095927;28;20027;-44
2024/01/23 10:59:51;;;;;;;3.05;1.05;;;14.20;92.00;;;;;;5094842;28;20474;-45
2024/01/23 11:02:25;;;;;;;2.50;0.70;;;14.20;91.90;;;;;;5094519;28;20512;-45
2024/01/23 11:04:51;;;;;;;3.05;1.00;;;14.30;91.80;;;;;;5095330;28;20389;-45
2024/01/23 11:07:33;;;;;;;2.55;0.90;;;14.40;91.70;;;;;;5094890;28;20104;-45
2024/01/23 11:10:20;;;;;;;3.05;1.00;;;14.50;91.60;;;;;;5095065;28;20028;-44
2024/01/23 11:13:00;;;;;;;3.90;1.20;;;14.70;91.50;;;;;;5094859;28;20017;-44
2024/01/23 11:15:26;;;;;;;2.65;1.00;;;14.80;91.40;;;;;;5095602;28;20028;-44
2024/01/23 11:17:53;;;;;;;3.08;1.00;;;14.80;91.20;;;;;;5094401;28;20058;-43
2024/01/23 11:20:18;;;;;;;3.95;1.35;;;14.90;91.10;;;;;;5093071;28;20103;-44
2024/01/23 11:22:44;;;;;;;2.58;0.95;;;14.90;90.90;;;;;;5094433;28;20461;-45
2024/01/23 11:25:10;;;;;;;2.83;1.00;;;15.00;90.80;;;;;;5094095;28;20035;-44
2024/01/23 11:27:38;;;;;;;4.03;1.13;;;15.10;90.70;;;;;;5095057;28;20489;-43
2024/01/23 11:30:08;;;;;;;3.22;1.00;;;15.10;90.60;;;;;;5094727;28;20024;-44
2024/01/23 11:32:34;;;;;;;3.75;1.10;;;15.10;90.60;;;;;;5094610;28;20028;-45
2024/01/23 11:35:03;;;;;;;3.97;1.10;;;15.20;90.60;;;;;;5094119;28;20205;-44
2024/01/23 11:37:35;;;;;;;4.15;1.10;;;15.20;90.50;;;;;;5094060;28;20048;-43
2024/01/23 11:40:05;;;;;;;2.78;1.05;;;15.20;90.40;;;;;;5094812;28;20024;-45
2024/01/23 11:42:37;;;;;;;2.25;0.90;;;15.30;90.40;;;;;;5094704;28;20470;-45
2024/01/23 11:45:37;;;;;;;2.08;0.88;;;15.30;90.30;;;;;;5094126;28;20035;-42
2024/01/23 11:48:05;;;;;;;3.72;0.90;;;15.40;90.30;;;;;;5091184;28;20032;-43
2024/01/23 11:50:34;;;;;;;2.60;1.00;;;15.40;90.20;;;;;;5093381;28;20050;-44
2024/01/23 11:53:00;;;;;;;2.60;1.00;;;15.40;90.20;;;;;;5093779;28;20035;-44
2024/01/23 11:55:27;;;;;;;3.55;1.10;;;15.40;90.10;;;;;;5093191;28;20032;-44
2024/01/23 11:57:55;;;;;;;5.07;1.40;;;15.40;90.10;;;;;;5093783;28;20081;-43
2024/01/23 12:00:22;;;;;;;6.15;1.88;;;15.50;90.20;;;;;;5094114;28;20016;-44
2024/01/23 12:02:48;;;;;;;5.32;1.52;;;15.50;90.20;;;;;;5093284;28;20035;-43
2024/01/23 12:05:14;;;;;;;6.28;1.50;;;15.50;90.30;;;;;;5093272;28;20050;-44
2024/01/23 12:07:41;;;;;;;5.75;1.63;;;15.60;90.20;;;;;;5094401;28;20405;-44
2024/01/23 12:10:08;;;;;;;6.93;1.80;;;15.60;90.10;;;;;;5093331;28;20028;-44
2024/01/23 12:12:34;;;;;;;6.40;1.40;;;15.70;90.10;;;;;;5093834;28;20097;-44
2024/01/23 12:15:00;;;;;;;6.05;1.70;;;15.80;90.00;;;;;;5093282;28;20044;-44
2024/01/23 12:17:25;;;;;;;5.15;1.60;;;15.80;90.00;;;;;;5093223;28;20077;-44
2024/01/23 12:19:51;;;;;;;6.72;1.63;;;15.90;89.80;;;;;;5093183;28;20028;-43
2024/01/23 12:22:18;;;;;;;4.25;1.13;;;15.90;89.60;;;;;;5093270;28;20051;-44
2024/01/23 12:24:44;;;;;;;4.80;1.58;;;15.90;89.40;;;;;;5091659;28;20397;-43
2024/01/23 12:27:09;;;;;;;5.32;1.40;;;16.00;89.30;;;;;;5093165;28;20027;-44
2024/01/23 12:29:36;;;;;;;4.53;1.40;;;16.00;89.20;;;;;;5093582;28;20020;-44
2024/01/23 12:32:02;;;;;;;4.20;1.40;;;16.00;89.10;;;;;;5093504;28;20047;-44
2024/01/23 12:34:31;;;;;;;3.42;1.17;;;16.00;89.00;;;;;;5094563;28;20482;-44
2024/01/23 12:37:00;;;;;;;3.45;1.30;;;16.00;89.60;;;;;;5093186;28;20056;-45
2024/01/23 12:39:29;;;;;;;3.50;1.27;;;16.10;88.80;;;;;;5092782;28;20417;-44
2024/01/23 12:41:57;;;;;;;3.95;1.23;;;16.00;88.70;;;;;;5092894;28;20148;-44
2024/01/23 12:44:22;;;;;;;4.65;1.30;;;16.00;88.70;;;;;;5092860;28;20120;-44
2024/01/23 12:46:50;;;;;;;5.65;1.50;;;16.00;88.60;;;;;;5093023;28;20107;-44
2024/01/23 12:49:18;;;;;;;2.75;1.20;;;16.00;88.60;;;;;;5092948;28;20052;-44
2024/01/23 12:51:48;;;;;;;5.32;1.42;;;16.00;88.60;;;;;;5093241;28;20013;-44